Arnaudville, Louisiana
Current Conditions -  °F | °C
As of 3:53 AM on Thursday 23 Oct 2014 (Local Time) from KLFT Reporting Station
Clear Clear  
Wind Chill: 56°   Ceiling: Unl
Heat Index: 56°   Visibility: 10mi
Dew Point: 53°   Wind: 5mph
Humidity: 90%   Direction: 50°NE
Pressure: 30.07"   Gusts: NA
Location:  30.4°N, 91.93°W
Report Text: KLFT 230853Z 05004KT 10SM CLR 13/12 A3007 RMK AO2 SLP182 T01330117 58007
Loading
Personal Weather Stations






























Interactive Weather Map
Tropical Storm Tracking
New forecast layout! Learn more

10-Day Weather Forecast

Advertisements
Track Severe Weather on mobile